^^
Datos históricos de la estación: Murcia-Puente Tocinos
Diario Informe para Octubre 5, 2019 Unidades:  Métrico    Ingés   Ambas
Diario Semanal Mensual Anual
  Máxima: Mínima: Promedio:
Temperatura: 28.9 °C 17.9 °C 22.9 °C
Punto de rocio: 17.4 °C 10.2 °C 13.5 °C
Humedad: 77% 36.1% 57%
Velocidad viento: 18.4km/h 2.2km/h 8km/h
Racha viento: 32.2km/h - -
Viento- - SE
Presión: 1015.1 hPa 1012.4 hPa -
Precipitación: 0.0 mm    
 
 
Tabla de datos para Octubre 5, 2019
Hora Temperatura Punto de rocio Presión Viento Velocidad viento Racha viento Humedad Intensidad lluvia(por hora) Nubes
00:04 22.3 °C 11.9 °C 1013.6 hPa Sur 5.8 km/h 9.7 km/h 51.7% 0.0 mm
00:09 22.3 °C 12.1 °C 1013.5 hPa Sur 5.7 km/h 8.4 km/h 52.5% 0.0 mm
00:14 22.3 °C 12.5 °C 1013.5 hPa SSO 5 km/h 9.7 km/h 53.7% 0.0 mm
00:19 22.3 °C 12.8 °C 1013.5 hPa SO 5.1 km/h 9.7 km/h 55% 0.0 mm
00:24 22.3 °C 13.1 °C 1013.4 hPa OSO 5.8 km/h 9.5 km/h 55.9% 0.0 mm
00:29 22.3 °C 13.3 °C 1013.4 hPa OSO 5.7 km/h 9.7 km/h 56.7% 0.0 mm
00:34 22.2 °C 13.1 °C 1013.4 hPa OSO 4.7 km/h 9.7 km/h 56.4% 0.0 mm
00:39 22.2 °C 12.9 °C 1013.4 hPa OSO 4.5 km/h 8 km/h 56% 0.0 mm
00:44 22 °C 12.8 °C 1013.4 hPa OSO 3.2 km/h 7.4 km/h 56% 0.0 mm
00:49 21.9 °C 12.8 °C 1013.4 hPa SO 3.2 km/h 8 km/h 56.1% 0.0 mm
00:54 21.8 °C 12.9 °C 1013.4 hPa SSO 3.2 km/h 7.4 km/h 57% 0.0 mm
00:59 21.8 °C 13.1 °C 1013.4 hPa SSE 3.5 km/h 9.5 km/h 58% 0.0 mm
01:04 21.7 °C 13.7 °C 1013.4 hPa SSE 4.7 km/h 10 km/h 60.2% 0.0 mm
01:09 21.6 °C 14.1 °C 1013.3 hPa Sur 4.9 km/h 10.3 km/h 62.4% 0.0 mm
01:14 21.4 °C 14.4 °C 1013.2 hPa Sur 6.9 km/h 11.3 km/h 64% 0.0 mm
01:19 21.3 °C 14.2 °C 1013.2 hPa Sur 6.9 km/h 9.7 km/h 63.8% 0.0 mm
01:24 21.3 °C 14.1 °C 1013.1 hPa SO 6.5 km/h 9.7 km/h 63.6% 0.0 mm
01:29 21.3 °C 14 °C 1013.0 hPa Sur 6.2 km/h 8 km/h 63.1% 0.0 mm
01:34 21.2 °C 13.3 °C 1013.0 hPa SE 4.7 km/h 8 km/h 61% 0.0 mm
01:39 21 °C 13.1 °C 1012.9 hPa SSE 4.6 km/h 8 km/h 61% 0.0 mm
01:44 20.8 °C 13.1 °C 1012.9 hPa SE 3.9 km/h 8 km/h 61.5% 0.0 mm
01:49 20.7 °C 13.2 °C 1012.9 hPa SSE 3.9 km/h 8 km/h 62% 0.0 mm
01:54 20.6 °C 13.2 °C 1012.8 hPa SSE 3.9 km/h 8 km/h 62.4% 0.0 mm
01:59 20.6 °C 13.3 °C 1012.8 hPa SSE 3.7 km/h 6.4 km/h 63% 0.0 mm
02:04 20.6 °C 13.3 °C 1013.0 hPa OSO 3.2 km/h 7.4 km/h 63% 0.0 mm
02:09 20.6 °C 13.4 °C 1013.0 hPa NO 3.2 km/h 8 km/h 63.7% 0.0 mm
02:14 20.4 °C 13.7 °C 1013.0 hPa ONO 3.2 km/h 6.4 km/h 65.4% 0.0 mm
02:19 20.4 °C 14.3 °C 1013.1 hPa OSO 3.3 km/h 8.4 km/h 68.2% 0.0 mm
02:24 20.3 °C 14.6 °C 1013.1 hPa SO 3.9 km/h 8 km/h 69.7% 0.0 mm
02:29 20.3 °C 14.7 °C 1013.1 hPa SO 3.9 km/h 8 km/h 70% 0.0 mm
02:34 20.3 °C 14.6 °C 1013.1 hPa SSO 4.7 km/h 8 km/h 70% 0.0 mm
02:39 20.2 °C 14.4 °C 1013.1 hPa SSO 4.7 km/h 8.4 km/h 69.3% 0.0 mm
02:44 20.3 °C 14.3 °C 1013.1 hPa SSE 4.7 km/h 10 km/h 68.4% 0.0 mm
02:49 20.3 °C 14.2 °C 1013.2 hPa SSE 4.8 km/h 9.7 km/h 68% 0.0 mm
02:54 20.2 °C 14.3 °C 1013.2 hPa SSE 5.8 km/h 9.7 km/h 68.9% 0.0 mm
02:59 20 °C 14.3 °C 1013.2 hPa Sur 5.8 km/h 14.8 km/h 69.8% 0.0 mm
03:04 19.8 °C 14.4 °C 1013.4 hPa Sur 5.8 km/h 14.5 km/h 71.2% 0.0 mm
03:09 19.8 °C 14.5 °C 1013.4 hPa Sur 6 km/h 11.9 km/h 71.3% 0.0 mm
03:14 19.8 °C 14.4 °C 1013.4 hPa Sur 7.6 km/h 13.7 km/h 70.9% 0.0 mm
03:19 19.8 °C 14.1 °C 1013.4 hPa Sur 7.7 km/h 14.5 km/h 70% 0.0 mm
03:24 19.7 °C 14 °C 1013.2 hPa Sur 8.7 km/h 14.8 km/h 69.6% 0.0 mm
03:29 19.6 °C 13.7 °C 1013.2 hPa Sur 8.8 km/h 16.7 km/h 68.5% 0.0 mm
03:34 19.6 °C 13.5 °C 1013.2 hPa SSO 10 km/h 16.1 km/h 67.8% 0.0 mm
03:39 19.6 °C 13.2 °C 1013.1 hPa SSO 9.8 km/h 13.7 km/h 66.7% 0.0 mm
03:44 19.7 °C 13.1 °C 1013.1 hPa SSO 8.7 km/h 14.8 km/h 65.6% 0.0 mm
03:49 19.8 °C 12.9 °C 1013.1 hPa SO 8.7 km/h 14.5 km/h 64.7% 0.0 mm
03:54 19.8 °C 12.8 °C 1013.0 hPa SO 8.4 km/h 12.9 km/h 64% 0.0 mm
03:59 19.8 °C 12.7 °C 1013.0 hPa SO 8.1 km/h 10 km/h 63.8% 0.0 mm
04:04 19.7 °C 12.5 °C 1013.0 hPa SSO 6.9 km/h 9.7 km/h 63% 0.0 mm
04:09 19.7 °C 12.4 °C 1012.9 hPa SSO 7 km/h 13.7 km/h 63% 0.0 mm
04:14 19.7 °C 12.3 °C 1012.9 hPa SSO 7.6 km/h 14.5 km/h 62.3% 0.0 mm
04:19 19.7 °C 12.3 °C 1012.9 hPa OSO 7.4 km/h 11.3 km/h 62.4% 0.0 mm
04:24 19.7 °C 12.2 °C 1012.9 hPa OSO 6.5 km/h 8.7 km/h 62% 0.0 mm
04:29 19.7 °C 12.2 °C 1012.9 hPa OSO 6.4 km/h 9.7 km/h 62% 0.0 mm
04:34 19.7 °C 12.2 °C 1012.9 hPa OSO 5.8 km/h 9.7 km/h 62% 0.0 mm
04:39 19.6 °C 12.1 °C 1012.8 hPa OSO 5.6 km/h 8 km/h 62% 0.0 mm
04:44 19.6 °C 12.1 °C 1012.8 hPa OSO 4.7 km/h 8 km/h 62% 0.0 mm
04:49 19.4 °C 12.2 °C 1012.8 hPa SO 4.7 km/h 8 km/h 62.9% 0.0 mm
04:54 19.4 °C 12.1 °C 1012.8 hPa OSO 4.7 km/h 8 km/h 63% 0.0 mm
04:59 19.3 °C 12.1 °C 1012.8 hPa OSO 4.5 km/h 8 km/h 63% 0.0 mm
05:04 19.3 °C 12.1 °C 1013.0 hPa OSO 3.9 km/h 8 km/h 63% 0.0 mm
05:09 19.2 °C 12.1 °C 1013.0 hPa OSO 3.7 km/h 8 km/h 63.4% 0.0 mm
05:14 19.2 °C 12.2 °C 1013.0 hPa OSO 2.9 km/h 5.6 km/h 64% 0.0 mm
05:19 19.2 °C 12.3 °C 1013.0 hPa OSO 2.8 km/h 4.8 km/h 64.5% 0.0 mm
05:24 19.2 °C 12.7 °C 1012.9 hPa SSE 2.2 km/h 7.6 km/h 66.2% 0.0 mm
05:29 19 °C 12.8 °C 1012.8 hPa Sur 2.6 km/h 8.4 km/h 67.2% 0.0 mm
05:34 18.8 °C 12.8 °C 1012.9 hPa SSE 4.7 km/h 8.4 km/h 68.3% 0.0 mm
05:39 18.7 °C 12.8 °C 1012.9 hPa Sur 4.8 km/h 9.5 km/h 69% 0.0 mm
05:44 18.6 °C 12.8 °C 1012.9 hPa SSO 5.8 km/h 9.7 km/h 69% 0.0 mm
05:49 18.7 °C 12.8 °C 1012.9 hPa SSO 5.8 km/h 9.7 km/h 69% 0.0 mm
05:54 18.7 °C 12.9 °C 1012.8 hPa SSO 5.8 km/h 9.7 km/h 68.9% 0.0 mm
05:59 18.7 °C 12.7 °C 1012.7 hPa SO 5.6 km/h 8.4 km/h 68% 0.0 mm
06:04 18.8 °C 12.8 °C 1012.7 hPa SSO 5 km/h 8 km/h 68% 0.0 mm
06:09 18.8 °C 12.8 °C 1012.7 hPa SSO 4.8 km/h 7.4 km/h 68% 0.0 mm
06:14 18.8 °C 12.8 °C 1012.7 hPa SO 3.9 km/h 11.9 km/h 68% 0.0 mm
06:19 18.8 °C 12.7 °C 1012.7 hPa SO 4.2 km/h 13 km/h 67.8% 0.0 mm
06:24 18.8 °C 12.6 °C 1012.7 hPa SSO 6.4 km/h 11.3 km/h 67% 0.0 mm
06:29 18.7 °C 12.5 °C 1012.7 hPa Sur 6.4 km/h 9.7 km/h 67% 0.0 mm
06:34 18.7 °C 12.4 °C 1012.8 hPa Sur 5.8 km/h 9.7 km/h 67% 0.0 mm
06:39 18.5 °C 12.3 °C 1012.8 hPa Sur 5.9 km/h 11.1 km/h 67% 0.0 mm
06:44 18.3 °C 12.2 °C 1012.8 hPa Sur 6.4 km/h 11.9 km/h 67.5% 0.0 mm
06:49 18.1 °C 12.1 °C 1012.8 hPa SSO 6.7 km/h 11.3 km/h 68% 0.0 mm
06:54 18 °C 12.1 °C 1012.8 hPa SSO 8.4 km/h 11.3 km/h 68.7% 0.0 mm
06:59 17.9 °C 12 °C 1012.8 hPa SO 7.8 km/h 9.7 km/h 68.3% 0.0 mm
07:04 18 °C 12 °C 1012.8 hPa SO 5 km/h 9.7 km/h 68% 0.0 mm
07:09 18 °C 12 °C 1012.7 hPa SO 5 km/h 8 km/h 68% 0.0 mm
07:14 18.1 °C 11.9 °C 1012.7 hPa SSO 5 km/h 8.7 km/h 67.2% 0.0 mm
07:19 18.1 °C 11.9 °C 1012.7 hPa SSO 5.2 km/h 13 km/h 67% 0.0 mm
07:24 18.2 °C 11.9 °C 1012.7 hPa SSO 6.4 km/h 13.7 km/h 66.7% 0.0 mm
07:29 18.2 °C 11.7 °C 1012.7 hPa SSO 6.6 km/h 14.5 km/h 66% 0.0 mm
07:34 18.2 °C 11.7 °C 1012.7 hPa SSO 7.6 km/h 13.7 km/h 66% 0.0 mm
07:39 18.2 °C 11.7 °C 1012.7 hPa SO 7.7 km/h 14.5 km/h 66% 0.0 mm
07:44 18.2 °C 11.7 °C 1012.7 hPa SO 8.4 km/h 12.9 km/h 66% 0.0 mm
07:49 18.2 °C 11.7 °C 1012.9 hPa SO 8.1 km/h 10.3 km/h 66% 0.0 mm
07:54 18.1 °C 11.7 °C 1012.9 hPa OSO 6.5 km/h 12.2 km/h 66% 0.0 mm
07:59 18.2 °C 11.5 °C 1012.9 hPa OSO 6.8 km/h 15.6 km/h 65% 0.0 mm
08:04 18.2 °C 11.5 °C 1013.0 hPa SO 8.4 km/h 16.1 km/h 65% 0.0 mm
08:09 18.2 °C 11.5 °C 1013.0 hPa OSO 8.2 km/h 11.3 km/h 65.1% 0.0 mm
08:14 18.2 °C 11.5 °C 1013.0 hPa SO 6.9 km/h 11.3 km/h 65% 0.0 mm
08:19 18.3 °C 11.6 °C 1013.1 hPa SO 6.8 km/h 11.3 km/h 65% 0.0 mm
08:24 18.3 °C 11.6 °C 1013.1 hPa SO 5.8 km/h 9.7 km/h 65% 0.0 mm
08:29 18.3 °C 11.4 °C 1013.1 hPa SSO 5.7 km/h 8.4 km/h 64% 0.0 mm
08:34 18.4 °C 11.7 °C 1013.1 hPa SSO 5 km/h 9.3 km/h 64.9% 0.0 mm
08:39 18.4 °C 11.7 °C 1013.1 hPa SO 5.1 km/h 9.7 km/h 65% 0.0 mm
08:44 18.5 °C 11.5 °C 1013.1 hPa SSO 5.8 km/h 10 km/h 64% 0.0 mm
08:49 18.6 °C 11.5 °C 1013.1 hPa SO 5.9 km/h 11.1 km/h 63.5% 0.0 mm
08:54 18.7 °C 11.4 °C 1013.1 hPa SSO 6.4 km/h 11.3 km/h 62.8% 0.0 mm
08:59 18.8 °C 11.4 °C 1013.1 hPa SO 6.5 km/h 11.1 km/h 62% 0.0 mm
09:04 19 °C 11.4 °C 1013.3 hPa OSO 6.5 km/h 11.3 km/h 61.4% 0.0 mm
09:09 19.2 °C 11.2 °C 1013.3 hPa SO 6.4 km/h 9.7 km/h 60% 0.0 mm
09:14 19.3 °C 11.2 °C 1013.3 hPa SO 5.8 km/h 11.1 km/h 59.6% 0.0 mm
09:19 19.4 °C 11.2 °C 1013.4 hPa SO 5.9 km/h 11.9 km/h 59% 0.0 mm
09:24 19.6 °C 11.3 °C 1013.4 hPa SO 6.9 km/h 11.9 km/h 58.6% 0.0 mm
09:29 19.7 °C 11.2 °C 1013.4 hPa SO 6.9 km/h 11.9 km/h 58% 0.0 mm
09:34 19.8 °C 11.1 °C 1013.5 hPa SO 6.9 km/h 11.3 km/h 57.1% 0.0 mm
09:39 20 °C 11 °C 1013.5 hPa SO 6.9 km/h 11.3 km/h 56.4% 0.0 mm
09:44 20.2 °C 10.9 °C 1013.5 hPa SO 6.9 km/h 11.3 km/h 55.4% 0.0 mm
09:49 20.3 °C 10.9 °C 1013.7 hPa SO 6.8 km/h 9.7 km/h 54.7% 0.0 mm
09:54 20.5 °C 10.9 °C 1013.7 hPa SO 5.8 km/h 9.7 km/h 54% 0.0 mm
09:59 20.7 °C 10.6 °C 1013.7 hPa OSO 5.8 km/h 9.5 km/h 52.5% 0.0 mm
10:04 20.9 °C 10.5 °C 1013.8 hPa OSO 5.8 km/h 9.7 km/h 51.3% 0.0 mm
10:09 21.1 °C 10.6 °C 1013.8 hPa SSO 5.8 km/h 9.7 km/h 51.1% 0.0 mm
10:14 21.3 °C 10.6 °C 1013.8 hPa SSO 5.8 km/h 9.7 km/h 50.3% 0.0 mm
10:19 21.6 °C 10.4 °C 1013.8 hPa SSO 5.7 km/h 10.3 km/h 48.8% 0.0 mm
10:24 21.8 °C 10.3 °C 1013.8 hPa SO 5 km/h 11.3 km/h 48% 0.0 mm
10:29 22 °C 10.2 °C 1013.8 hPa OSO 5 km/h 10 km/h 47.2% 0.0 mm
10:34 22.2 °C 10.2 °C 1013.9 hPa OSO 5 km/h 10 km/h 46.3% 0.0 mm
10:39 22.5 °C 10.3 °C 1013.9 hPa OSO 5.1 km/h 9.7 km/h 46% 0.0 mm
10:44 22.7 °C 10.5 °C 1013.9 hPa Oeste 5.8 km/h 11.9 km/h 45.8% 0.0 mm
10:49 22.8 °C 10.5 °C 1014.0 hPa OSO 5.9 km/h 11.3 km/h 45.8% 0.0 mm
10:54 22.8 °C 10.3 °C 1014.0 hPa Oeste 6.9 km/h 13 km/h 45% 0.0 mm
10:59 22.9 °C 10.4 °C 1014.0 hPa OSO 6.9 km/h 12.9 km/h 45% 0.0 mm
11:04 23.1 °C 10.5 °C 1014.1 hPa OSO 6.9 km/h 11.3 km/h 45% 0.0 mm
11:09 23.2 °C 10.6 °C 1014.1 hPa Oeste 6.9 km/h 10 km/h 45% 0.0 mm
11:14 23.3 °C 10.6 °C 1014.1 hPa Oeste 6.5 km/h 9.7 km/h 44.6% 0.0 mm
11:19 23.6 °C 10.6 °C 1014.2 hPa Oeste 6.1 km/h 9.5 km/h 44% 0.0 mm
11:24 23.8 °C 10.4 °C 1014.2 hPa OSO 3.9 km/h 11.9 km/h 43% 0.0 mm
11:29 24 °C 10.5 °C 1014.2 hPa SO 4.3 km/h 11.9 km/h 42.8% 0.0 mm
11:34 24.2 °C 10.5 °C 1014.2 hPa SSO 6.9 km/h 11.3 km/h 42% 0.0 mm
11:39 24.5 °C 10.6 °C 1014.1 hPa SSO 6.8 km/h 10 km/h 41.6% 0.0 mm
11:44 24.7 °C 10.6 °C 1014.1 hPa SO 5.8 km/h 9.7 km/h 41% 0.0 mm
11:49 25.1 °C 10.8 °C 1014.1 hPa SSO 5.5 km/h 7.4 km/h 40.7% 0.0 mm
11:54 25.5 °C 10.7 °C 1014.1 hPa SSE 3.2 km/h 8.4 km/h 39.4% 0.0 mm
11:59 25.8 °C 10.5 °C 1014.1 hPa SE 3.4 km/h 8 km/h 38.3% 0.0 mm
12:04 26.1 °C 10.6 °C 1014.1 hPa ESE 4.7 km/h 11.1 km/h 37.8% 0.0 mm
12:09 26.2 °C 10.8 °C 1014.1 hPa SE 4.7 km/h 11.3 km/h 38% 0.0 mm
12:14 26.5 °C 10.8 °C 1014.1 hPa ESE 5 km/h 8 km/h 37.4% 0.0 mm
12:19 26.8 °C 10.8 °C 1014.1 hPa ESE 5 km/h 9.5 km/h 37% 0.0 mm
12:24 26.9 °C 10.7 °C 1014.1 hPa ESE 5 km/h 9.7 km/h 36.3% 0.0 mm
12:29 27 °C 11.1 °C 1014.1 hPa NE 5 km/h 11.1 km/h 37% 0.0 mm
12:34 27 °C 11 °C 1014.1 hPa ENE 5 km/h 13.7 km/h 36.8% 0.0 mm
12:39 26.8 °C 10.9 °C 1014.1 hPa NE 5.6 km/h 14.8 km/h 37.1% 0.0 mm
12:44 26.8 °C 11.2 °C 1014.1 hPa NE 8.7 km/h 14.8 km/h 37.9% 0.0 mm
12:49 26.9 °C 11.2 °C 1014.2 hPa NE 8.4 km/h 12.9 km/h 37.5% 0.0 mm
12:54 27.1 °C 11.1 °C 1014.2 hPa NE 6.5 km/h 13.7 km/h 36.9% 0.0 mm
12:59 27 °C 11 °C 1014.2 hPa NE 6.8 km/h 14.8 km/h 36.9% 0.0 mm
13:04 27.1 °C 11.2 °C 1014.3 hPa NE 8.4 km/h 14.5 km/h 37% 0.0 mm
13:09 27.2 °C 11.3 °C 1014.3 hPa NE 8.1 km/h 14.8 km/h 37.1% 0.0 mm
13:14 27.3 °C 11.3 °C 1014.3 hPa NE 6.9 km/h 14.8 km/h 37% 0.0 mm
13:19 27.4 °C 11.4 °C 1014.3 hPa NE 7 km/h 13.7 km/h 37% 0.0 mm
13:24 27.3 °C 11 °C 1014.2 hPa NE 7.6 km/h 17.2 km/h 36.1% 0.0 mm
13:29 27.3 °C 11.2 °C 1014.2 hPa NE 8 km/h 17.7 km/h 36.8% 0.0 mm
13:34 27.3 °C 11.2 °C 1014.2 hPa NE 10.3 km/h 18.5 km/h 36.7% 0.0 mm
13:39 27.4 °C 11.3 °C 1014.0 hPa NE 10 km/h 19.3 km/h 36.6% 0.0 mm
13:44 27.7 °C 11.7 °C 1013.9 hPa NE 8.7 km/h 19 km/h 37.1% 0.0 mm
13:49 27.8 °C 11.8 °C 1013.9 hPa NE 8.8 km/h 19.3 km/h 37% 0.0 mm
13:54 27.8 °C 12.1 °C 1013.8 hPa NNE 9.5 km/h 18.5 km/h 37.7% 0.0 mm
13:59 27.9 °C 12.3 °C 1013.8 hPa NE 9.6 km/h 19.3 km/h 38% 0.0 mm
14:04 27.9 °C 12.3 °C 1013.8 hPa NE 10 km/h 19.3 km/h 38% 0.0 mm
14:09 28.1 °C 12.7 °C 1013.6 hPa NNE 10 km/h 19.3 km/h 38.8% 0.0 mm
14:14 28.2 °C 13.1 °C 1013.6 hPa NNE 10 km/h 20.4 km/h 39.4% 0.0 mm
14:19 28.2 °C 12.9 °C 1013.6 hPa NNE 10.2 km/h 20.9 km/h 39% 0.0 mm
14:24 28.2 °C 13.1 °C 1013.4 hPa NE 11.1 km/h 20.9 km/h 39.4% 0.0 mm
14:29 28.3 °C 13.4 °C 1013.4 hPa NE 10.9 km/h 19.3 km/h 40% 0.0 mm
14:34 28.4 °C 13.6 °C 1013.4 hPa NE 10 km/h 22.5 km/h 40.3% 0.0 mm
14:39 28.4 °C 13.8 °C 1013.1 hPa NE 10.3 km/h 22.5 km/h 40.7% 0.0 mm
14:44 28.3 °C 13.7 °C 1013.1 hPa NE 11.9 km/h 20.9 km/h 40.7% 0.0 mm
14:49 28.4 °C 13.9 °C 1013.1 hPa NE 12 km/h 20.4 km/h 41.1% 0.0 mm
14:54 28.5 °C 14 °C 1013.0 hPa NE 12.2 km/h 20.9 km/h 41.2% 0.0 mm
14:59 28.6 °C 14.1 °C 1013.0 hPa NE 11.8 km/h 19.3 km/h 41% 0.0 mm
15:04 28.7 °C 14.1 °C 1013.0 hPa NE 10 km/h 19 km/h 40.9% 0.0 mm
15:09 28.8 °C 14.4 °C 1012.8 hPa NE 10.3 km/h 19.3 km/h 41.3% 0.0 mm
15:14 28.8 °C 14.2 °C 1012.8 hPa NE 11.9 km/h 24.1 km/h 41% 0.0 mm
15:19 28.8 °C 14.5 °C 1012.8 hPa NE 11.9 km/h 24.1 km/h 41.6% 0.0 mm
15:24 28.9 °C 14.3 °C 1012.7 hPa NE 11.9 km/h 24.1 km/h 40.9% 0.0 mm
15:29 28.9 °C 13.8 °C 1012.7 hPa NE 12.2 km/h 24.1 km/h 39.6% 0.0 mm
15:34 28.9 °C 13.4 °C 1012.7 hPa NE 13.7 km/h 24.1 km/h 38.6% 0.0 mm
15:39 28.9 °C 13.4 °C 1012.7 hPa NE 13.8 km/h 26.2 km/h 38.7% 0.0 mm
15:44 28.9 °C 13.5 °C 1012.7 hPa NE 14.8 km/h 25.7 km/h 38.8% 0.0 mm
15:49 28.9 °C 13.3 °C 1012.7 hPa NE 14.8 km/h 25.9 km/h 38.3% 0.0 mm
15:54 28.9 °C 13.6 °C 1012.7 hPa NE 14.8 km/h 25.7 km/h 39% 0.0 mm
15:59 28.8 °C 13.6 °C 1012.7 hPa NE 15.1 km/h 28.2 km/h 39.3% 0.0 mm
16:04 28.7 °C 13.7 °C 1012.7 hPa NE 16.1 km/h 27.4 km/h 39.8% 0.0 mm
16:09 28.7 °C 13.6 °C 1012.6 hPa NE 16 km/h 25.9 km/h 39.7% 0.0 mm
16:14 28.5 °C 13.5 °C 1012.6 hPa NE 15.6 km/h 29.6 km/h 39.9% 0.0 mm
16:19 28.4 °C 13.5 °C 1012.6 hPa NE 15.9 km/h 29 km/h 40% 0.0 mm
16:24 28.6 °C 13.4 °C 1012.5 hPa NE 17.2 km/h 22.5 km/h 39.3% 0.0 mm
16:29 28.5 °C 13.4 °C 1012.5 hPa NE 17 km/h 28.2 km/h 39.4% 0.0 mm
16:34 28.4 °C 13.5 °C 1012.5 hPa NE 16.1 km/h 27.4 km/h 40% 0.0 mm
16:39 28.3 °C 13.6 °C 1012.4 hPa NE 16.1 km/h 26.2 km/h 40.6% 0.0 mm
16:44 28.2 °C 13.7 °C 1012.4 hPa NE 16.4 km/h 26.2 km/h 41.1% 0.0 mm
16:49 28.2 °C 14.1 °C 1012.5 hPa NE 16.5 km/h 29.6 km/h 42.1% 0.0 mm
16:54 28 °C 14.3 °C 1012.5 hPa NE 17.2 km/h 29.6 km/h 42.9% 0.0 mm
16:59 27.9 °C 14.6 °C 1012.5 hPa NE 17.4 km/h 29.8 km/h 44.4% 0.0 mm
17:04 27.8 °C 15 °C 1012.5 hPa NE 18.4 km/h 30.6 km/h 45.7% 0.0 mm
17:09 27.8 °C 15 °C 1012.4 hPa NE 18.1 km/h 29.6 km/h 45.7% 0.0 mm
17:14 27.6 °C 14.7 °C 1012.4 hPa NE 16.4 km/h 30.9 km/h 45.2% 0.0 mm
17:19 27.5 °C 14.3 °C 1012.5 hPa NE 16.4 km/h 32.2 km/h 44.5% 0.0 mm
17:24 27.4 °C 14.1 °C 1012.5 hPa NE 16.1 km/h 32.2 km/h 44% 0.0 mm
17:29 27.3 °C 14 °C 1012.5 hPa NE 16.1 km/h 25.7 km/h 44.1% 0.0 mm
17:34 27.3 °C 14.2 °C 1012.6 hPa NE 16.4 km/h 28.2 km/h 44.8% 0.0 mm
17:39 27.1 °C 14.4 °C 1012.6 hPa NE 16.4 km/h 27.4 km/h 45.6% 0.0 mm
17:44 27 °C 14.3 °C 1012.6 hPa NE 16.1 km/h 25.9 km/h 45.7% 0.0 mm
17:49 26.9 °C 14.2 °C 1012.7 hPa NE 16 km/h 27.8 km/h 45.8% 0.0 mm
17:54 26.8 °C 14.2 °C 1012.7 hPa NE 15.6 km/h 29.8 km/h 46% 0.0 mm
17:59 26.7 °C 14.2 °C 1012.7 hPa NE 15.6 km/h 30.6 km/h 46.3% 0.0 mm
18:04 26.7 °C 14.4 °C 1012.7 hPa NE 15.6 km/h 24.1 km/h 47% 0.0 mm
18:09 26.6 °C 14.5 °C 1012.7 hPa NE 15.6 km/h 24.1 km/h 47.7% 0.0 mm
18:14 26.4 °C 14.9 °C 1012.7 hPa NE 15.6 km/h 24.1 km/h 49% 0.0 mm
18:19 26.3 °C 14.8 °C 1012.7 hPa NE 15.3 km/h 22.5 km/h 49% 0.0 mm
18:24 26.2 °C 14.9 °C 1012.7 hPa NE 14 km/h 25.9 km/h 49.8% 0.0 mm
18:29 26.1 °C 14.9 °C 1012.7 hPa NE 14.2 km/h 25.7 km/h 50% 0.0 mm
18:34 25.9 °C 14.7 °C 1012.8 hPa NE 15.6 km/h 25.9 km/h 50.1% 0.0 mm
18:39 25.9 °C 15 °C 1012.8 hPa NE 15.3 km/h 24.1 km/h 51% 0.0 mm
18:44 25.8 °C 14.9 °C 1012.8 hPa NE 14 km/h 24.1 km/h 51% 0.0 mm
18:49 25.7 °C 14.7 °C 1013.0 hPa NE 14 km/h 24.1 km/h 50.9% 0.0 mm
18:54 25.6 °C 14.7 °C 1013.0 hPa NE 14 km/h 22.5 km/h 51% 0.0 mm
18:59 25.5 °C 14.7 °C 1013.0 hPa NE 13.6 km/h 21.7 km/h 51.5% 0.0 mm
19:04 25.3 °C 14.9 °C 1013.1 hPa NE 11.9 km/h 22.5 km/h 52.5% 0.0 mm
19:09 25.2 °C 15.1 °C 1013.1 hPa NE 12 km/h 20.9 km/h 53.6% 0.0 mm
19:14 25.1 °C 15.4 °C 1013.1 hPa NE 12.2 km/h 22.2 km/h 55.1% 0.0 mm
19:19 24.8 °C 15.6 °C 1013.2 hPa NE 12.5 km/h 22.5 km/h 56.6% 0.0 mm
19:24 24.7 °C 15.9 °C 1013.2 hPa NE 13.7 km/h 22.5 km/h 57.8% 0.0 mm
19:29 24.6 °C 16.1 °C 1013.2 hPa NE 13.6 km/h 22.5 km/h 59% 0.0 mm
19:34 24.5 °C 16.1 °C 1013.4 hPa NE 13 km/h 22.2 km/h 59.9% 0.0 mm
19:39 24.3 °C 16.3 °C 1013.4 hPa NE 13.1 km/h 22.5 km/h 61% 0.0 mm
19:44 24.3 °C 16.5 °C 1013.4 hPa NE 13.7 km/h 20.9 km/h 62% 0.0 mm
19:49 24.2 °C 16.6 °C 1013.6 hPa NE 13.5 km/h 24.5 km/h 62.7% 0.0 mm
19:54 24.1 °C 16.9 °C 1013.6 hPa NE 12.2 km/h 24.1 km/h 63.9% 0.0 mm
19:59 24 °C 16.9 °C 1013.6 hPa NE 12.2 km/h 20.9 km/h 64.5% 0.0 mm
20:04 23.8 °C 16.8 °C 1013.6 hPa NE 11.9 km/h 20.4 km/h 64.6% 0.0 mm
20:09 23.8 °C 16.4 °C 1013.6 hPa NE 11.6 km/h 20.9 km/h 63.5% 0.0 mm
20:14 23.7 °C 16.2 °C 1013.6 hPa NE 10.3 km/h 19.3 km/h 63% 0.0 mm
20:19 23.6 °C 16.2 °C 1013.7 hPa NE 10.3 km/h 16.1 km/h 63% 0.0 mm
20:24 23.6 °C 16.3 °C 1013.7 hPa NE 10 km/h 20.4 km/h 63.7% 0.0 mm
20:29 23.5 °C 16.5 °C 1013.7 hPa NE 10 km/h 20.9 km/h 64.7% 0.0 mm
20:34 23.4 °C 16.6 °C 1013.8 hPa NE 10 km/h 16.7 km/h 65.8% 0.0 mm
20:39 23.3 °C 16.7 °C 1013.8 hPa NE 10 km/h 16.7 km/h 66.7% 0.0 mm
20:44 23.2 °C 16.7 °C 1013.8 hPa NE 10.3 km/h 16.7 km/h 67% 0.0 mm
20:49 23.1 °C 16.8 °C 1013.9 hPa NE 10.1 km/h 16.1 km/h 67.7% 0.0 mm
20:54 23 °C 16.8 °C 1013.9 hPa NE 8.7 km/h 14.8 km/h 68.3% 0.0 mm
20:59 23 °C 17 °C 1013.9 hPa NE 8.7 km/h 16.7 km/h 69% 0.0 mm
21:04 23 °C 17 °C 1014.0 hPa NE 8.7 km/h 16.1 km/h 69% 0.0 mm
21:09 23.1 °C 17.1 °C 1014.0 hPa NE 8.5 km/h 14.5 km/h 69% 0.0 mm
21:14 23 °C 17.2 °C 1014.0 hPa NE 7.6 km/h 11.3 km/h 70% 0.0 mm
21:19 23 °C 17.3 °C 1014.2 hPa NE 7.6 km/h 13 km/h 70.4% 0.0 mm
21:24 22.8 °C 17.3 °C 1014.2 hPa NE 7.6 km/h 13 km/h 71% 0.0 mm
21:29 22.8 °C 17.4 °C 1014.2 hPa ENE 7.5 km/h 13 km/h 71.6% 0.0 mm
21:34 22.7 °C 17.3 °C 1014.3 hPa ENE 6.9 km/h 12.9 km/h 71.7% 0.0 mm
21:39 22.6 °C 17.3 °C 1014.3 hPa NE 6.7 km/h 10.3 km/h 72% 0.0 mm
21:44 22.5 °C 17.2 °C 1014.3 hPa NE 5 km/h 11.9 km/h 72% 0.0 mm
21:49 22.4 °C 17.1 °C 1014.5 hPa NE 5.2 km/h 11.3 km/h 72% 0.0 mm
21:54 22.3 °C 17.2 °C 1014.5 hPa NE 6.4 km/h 10 km/h 72.8% 0.0 mm
21:59 22.3 °C 17.2 °C 1014.5 hPa NE 6.5 km/h 10 km/h 73% 0.0 mm
22:04 22.2 °C 17.1 °C 1014.6 hPa NE 6.5 km/h 10 km/h 73.1% 0.0 mm
22:09 22.1 °C 17.2 °C 1014.6 hPa NE 6.5 km/h 11.1 km/h 74% 0.0 mm
22:14 22.1 °C 17.2 °C 1014.6 hPa NE 6.5 km/h 11.3 km/h 74.1% 0.0 mm
22:19 22.1 °C 17.2 °C 1014.7 hPa NE 6.4 km/h 10 km/h 74% 0.0 mm
22:24 21.9 °C 17.2 °C 1014.7 hPa NE 5.8 km/h 9.7 km/h 74.6% 0.0 mm
22:29 21.9 °C 17.3 °C 1014.7 hPa ENE 5.5 km/h 8 km/h 75% 0.0 mm
22:34 21.8 °C 17.2 °C 1014.8 hPa Este 3.9 km/h 8 km/h 75% 0.0 mm
22:39 21.8 °C 17.2 °C 1014.8 hPa NNE 3.7 km/h 6.4 km/h 75% 0.0 mm
22:44 21.7 °C 17.1 °C 1014.8 hPa North 2.9 km/h 5.8 km/h 75% 0.0 mm
22:49 21.6 °C 17 °C 1014.8 hPa North 3 km/h 6.4 km/h 75% 0.0 mm
22:54 21.5 °C 16.9 °C 1014.8 hPa NNE 3.2 km/h 6.4 km/h 75.4% 0.0 mm
22:59 21.4 °C 17 °C 1014.8 hPa NNE 3 km/h 3.9 km/h 76% 0.0 mm
23:04 21.4 °C 17 °C 1015.0 hPa NNE 2.2 km/h 3.9 km/h 76% 0.0 mm
23:09 21.3 °C 17 °C 1015.0 hPa NNE 2.2 km/h 5.8 km/h 76.6% 0.0 mm
23:14 21.3 °C 17.1 °C 1015.0 hPa NNE 2.2 km/h 7.4 km/h 77% 0.0 mm
23:19 21.2 °C 17 °C 1015.0 hPa NNE 2.4 km/h 8 km/h 77% 0.0 mm
23:24 21.2 °C 17 °C 1015.0 hPa NE 3.2 km/h 7.6 km/h 77% 0.0 mm
23:29 21.1 °C 16.9 °C 1015.0 hPa NE 3.3 km/h 8 km/h 77% 0.0 mm
23:34 21.1 °C 16.9 °C 1015.1 hPa NE 3.9 km/h 8 km/h 77% 0.0 mm
23:39 21.1 °C 16.9 °C 1015.1 hPa NE 3.8 km/h 8 km/h 77% 0.0 mm
23:44 21.1 °C 16.9 °C 1015.1 hPa NE 3.2 km/h 5.6 km/h 77% 0.0 mm
23:49 21.1 °C 16.9 °C 1015.1 hPa NE 3.2 km/h 4.8 km/h 77% 0.0 mm
23:54 21 °C 16.7 °C 1015.1 hPa NE 2.9 km/h 4.8 km/h 76.4% 0.0 mm
23:59 20.9 °C 16.3 °C 1015.1 hPa NE 2.8 km/h 4.8 km/h 75.2% 0.0 mm
Murcia-Puente Tocinos, España
Compliments of Weather Underground - 3 mb

La estación de MeteoMurcia.com, publica sus datos en los siguientes proyectos:

Weather Underground PWS IMURCIAP2 Meteoclimatic www.awekas.at

W3Counter
Web Analytics